Columbus Grove, OH (45830)

6:28 AM EDT on September 16, 2014 (GMT -0400)
Bluffton | Change Station
CLOSE
Current Station
Personal Weather Station
Location: Bluffton, OH
Elevation: 847 ft
Nearby Weather Stations

Elev 847 ft 40.89 °N, 83.89 °W | Updated 3 minutes ago

Overcast
Overcast
52.3 °F
Feels Like 52.3 °F
N
3.0
Wind Variable Wind from NW
Gusts 8.0 mph

Today
High -- | Low -- °F
--% Chance of Precip.
Yesterday
High -- | Low -- °F
Precip. -- in
7:17 AM 7:43 PM
Waning Gibbous, 47% visible
Pressure 30.14 in
Visibility 4.0 miles
Clouds Mostly Cloudy 800 ft
Overcast 1200 ft
Dew Point 52 °F
Humidity 98%
Rainfall 0.01 in
Snow Depth Not available.
UV 0.0 out of 12
Pollen 2.60 out of 12
Air Quality Not available.
Flu Activity Not available.
SPECI KAOH 161019Z AUTO 33007KT 4SM BR BKN008 OVC012 12/11 A3014 RMK AO2 CIG 006V010 T01220111

More Conditions Fewer Conditions

Pressure 30.14 in
Visibility 4.0 miles
Clouds Mostly Cloudy 800 ft
Overcast 1200 ft
Dew Point 52 °F
Humidity 98%
Rainfall 0.01 in
Snow Depth Not available.
UV 0.0 out of 12
Pollen 2.60 out of 12
Air Quality Not available.
Flu Activity Not available.
SPECI KAOH 161019Z AUTO 33007KT 4SM BR BKN008 OVC012 12/11 A3014 RMK AO2 CIG 006V010 T01220111

More Conditions Fewer Conditions

10-Day Weather Forecast

Almanac

Astronomy

Sep. 16, 2014 Rise Set
Actual Time 7:17 AM EDT 7:43 PM EDT
Civil Twilight 6:50 AM EDT 8:10 PM EDT
Nautical Twilight 6:17 AM EDT 8:43 PM EDT
Astronomical Twilight 5:44 AM EDT 9:16 PM EDT
Moon 12:24 AM EDT 3:08 PM EDT
Length of Visible Light 13h 20m
Length of Day
12h 25m
Tomorrow will be 2m 41s shorter.
Waning Gibbous, 47% of the Moon is Illuminated
Today
Waning Gibbous
Sep 24
New
Oct 1
First Quarter
Oct 8
Full
Oct 15
Last Quarter

Today's Extremes

State Highs State Lows

Community

WunderPhotos

Upload Photos

1,753,718 photos uploaded!

WunderBlogs® & News

Nearby

Snow Depth

Station Depth Elevation
No new snow has been reported.

Earthquake Activity

City Distance Mag. Time & Date
No recent earthquake activity has been reported nearby.
Minimum magnitude displayed is 2.5.

Coastal Water Temperatures

Place Temperature
No Stations Reporting

Nearby Weather Stations